sensor_id;sensor_type;location;lat;lon;timestamp;temperature;humidity
30069;DHT22;16894;49.456;10.644;2023-07-20T00:01:23;16.80;99.90
30069;DHT22;16894;49.456;10.644;2023-07-20T00:03:48;16.80;99.90
30069;DHT22;16894;49.456;10.644;2023-07-20T00:06:20;16.70;99.90
30069;DHT22;16894;49.456;10.644;2023-07-20T00:08:47;16.70;99.90
30069;DHT22;16894;49.456;10.644;2023-07-20T00:11:13;16.70;99.90
30069;DHT22;16894;49.456;10.644;2023-07-20T00:13:39;16.80;99.90
30069;DHT22;16894;49.456;10.644;2023-07-20T00:16:05;16.80;99.90
30069;DHT22;16894;49.456;10.644;2023-07-20T00:18:31;16.90;99.90
30069;DHT22;16894;49.456;10.644;2023-07-20T00:20:57;16.90;99.90
30069;DHT22;16894;49.456;10.644;2023-07-20T00:23:22;16.90;99.90
30069;DHT22;16894;49.456;10.644;2023-07-20T00:25:51;16.90;99.90
30069;DHT22;16894;49.456;10.644;2023-07-20T00:28:17;16.90;99.90
30069;DHT22;16894;49.456;10.644;2023-07-20T00:30:42;16.80;99.90
30069;DHT22;16894;49.456;10.644;2023-07-20T00:33:12;16.80;99.90
30069;DHT22;16894;49.456;10.644;2023-07-20T00:35:39;16.90;99.90
30069;DHT22;16894;49.456;10.644;2023-07-20T00:38:05;16.80;99.90
30069;DHT22;16894;49.456;10.644;2023-07-20T00:40:37;16.70;99.90
30069;DHT22;16894;49.456;10.644;2023-07-20T00:43:03;16.80;99.90
30069;DHT22;16894;49.456;10.644;2023-07-20T00:45:30;16.80;99.90
30069;DHT22;16894;49.456;10.644;2023-07-20T00:47:57;16.80;99.90
30069;DHT22;16894;49.456;10.644;2023-07-20T00:50:24;16.90;99.90
30069;DHT22;16894;49.456;10.644;2023-07-20T00:52:50;16.90;99.90
30069;DHT22;16894;49.456;10.644;2023-07-20T00:55:16;16.90;99.90
30069;DHT22;16894;49.456;10.644;2023-07-20T00:57:42;16.80;99.90
30069;DHT22;16894;49.456;10.644;2023-07-20T01:00:08;16.80;99.90
30069;DHT22;16894;49.456;10.644;2023-07-20T01:02:34;16.70;99.90
30069;DHT22;16894;49.456;10.644;2023-07-20T01:05:00;16.80;99.90
30069;DHT22;16894;49.456;10.644;2023-07-20T01:07:36;16.70;99.90
30069;DHT22;16894;49.456;10.644;2023-07-20T01:10:11;16.60;99.90
30069;DHT22;16894;49.456;10.644;2023-07-20T01:12:47;16.60;99.90
30069;DHT22;16894;49.456;10.644;2023-07-20T01:15:13;16.60;99.90
30069;DHT22;16894;49.456;10.644;2023-07-20T01:17:39;16.60;99.90
30069;DHT22;16894;49.456;10.644;2023-07-20T01:20:06;16.50;99.90
30069;DHT22;16894;49.456;10.644;2023-07-20T01:32:43;16.40;99.90
30069;DHT22;16894;49.456;10.644;2023-07-20T01:35:12;16.40;99.90
30069;DHT22;16894;49.456;10.644;2023-07-20T01:37:46;16.40;99.90
30069;DHT22;16894;49.456;10.644;2023-07-20T01:40:14;16.40;99.90
30069;DHT22;16894;49.456;10.644;2023-07-20T01:42:44;16.30;99.90
30069;DHT22;16894;49.456;10.644;2023-07-20T01:45:11;16.30;99.90
30069;DHT22;16894;49.456;10.644;2023-07-20T01:47:37;16.30;99.90
30069;DHT22;16894;49.456;10.644;2023-07-20T01:50:03;16.40;99.90
30069;DHT22;16894;49.456;10.644;2023-07-20T01:52:29;16.30;99.90
30069;DHT22;16894;49.456;10.644;2023-07-20T01:54:55;16.40;99.90
30069;DHT22;16894;49.456;10.644;2023-07-20T01:57:20;16.30;99.90
30069;DHT22;16894;49.456;10.644;2023-07-20T01:59:46;16.30;99.90
30069;DHT22;16894;49.456;10.644;2023-07-20T02:02:12;16.30;99.90
30069;DHT22;16894;49.456;10.644;2023-07-20T02:04:37;16.40;99.90
30069;DHT22;16894;49.456;10.644;2023-07-20T02:07:03;16.30;99.90
30069;DHT22;16894;49.456;10.644;2023-07-20T02:09:29;16.30;99.90
30069;DHT22;16894;49.456;10.644;2023-07-20T02:11:55;16.30;99.90
30069;DHT22;16894;49.456;10.644;2023-07-20T02:14:21;16.30;99.90
30069;DHT22;16894;49.456;10.644;2023-07-20T02:16:48;16.20;99.90
30069;DHT22;16894;49.456;10.644;2023-07-20T02:19:18;16.30;99.90
30069;DHT22;16894;49.456;10.644;2023-07-20T02:21:44;16.30;99.90
30069;DHT22;16894;49.456;10.644;2023-07-20T02:24:12;16.30;99.90
30069;DHT22;16894;49.456;10.644;2023-07-20T02:26:38;16.30;99.90
30069;DHT22;16894;49.456;10.644;2023-07-20T02:29:04;16.20;99.90
30069;DHT22;16894;49.456;10.644;2023-07-20T02:31:33;16.20;99.90
30069;DHT22;16894;49.456;10.644;2023-07-20T02:33:59;16.10;99.90
30069;DHT22;16894;49.456;10.644;2023-07-20T02:36:25;16.10;99.90
30069;DHT22;16894;49.456;10.644;2023-07-20T02:38:50;16.10;99.90
30069;DHT22;16894;49.456;10.644;2023-07-20T02:41:16;16.10;99.90
30069;DHT22;16894;49.456;10.644;2023-07-20T02:43:41;16.10;99.90
30069;DHT22;16894;49.456;10.644;2023-07-20T02:46:07;16.10;99.90
30069;DHT22;16894;49.456;10.644;2023-07-20T02:48:33;16.10;99.90
30069;DHT22;16894;49.456;10.644;2023-07-20T02:50:59;16.10;99.90
30069;DHT22;16894;49.456;10.644;2023-07-20T02:53:24;16.00;99.90
30069;DHT22;16894;49.456;10.644;2023-07-20T02:55:50;16.00;99.90
30069;DHT22;16894;49.456;10.644;2023-07-20T02:58:15;16.00;99.90
30069;DHT22;16894;49.456;10.644;2023-07-20T03:00:42;15.90;99.90
30069;DHT22;16894;49.456;10.644;2023-07-20T03:03:08;16.00;99.90
30069;DHT22;16894;49.456;10.644;2023-07-20T03:05:35;16.00;99.90
30069;DHT22;16894;49.456;10.644;2023-07-20T03:08:03;15.90;99.90
30069;DHT22;16894;49.456;10.644;2023-07-20T03:10:31;16.00;99.90
30069;DHT22;16894;49.456;10.644;2023-07-20T03:12:58;15.90;99.90
30069;DHT22;16894;49.456;10.644;2023-07-20T03:15:24;15.90;99.90
30069;DHT22;16894;49.456;10.644;2023-07-20T03:17:50;15.90;99.90
30069;DHT22;16894;49.456;10.644;2023-07-20T03:20:17;15.80;99.90
30069;DHT22;16894;49.456;10.644;2023-07-20T03:22:42;15.80;99.90
30069;DHT22;16894;49.456;10.644;2023-07-20T03:25:09;15.80;99.90
30069;DHT22;16894;49.456;10.644;2023-07-20T03:27:34;15.80;99.90
30069;DHT22;16894;49.456;10.644;2023-07-20T03:30:00;15.70;99.90
30069;DHT22;16894;49.456;10.644;2023-07-20T03:32:26;15.70;99.90
30069;DHT22;16894;49.456;10.644;2023-07-20T03:34:51;15.70;99.90
30069;DHT22;16894;49.456;10.644;2023-07-20T03:37:17;15.60;99.90
30069;DHT22;16894;49.456;10.644;2023-07-20T03:39:43;15.60;99.90
30069;DHT22;16894;49.456;10.644;2023-07-20T03:42:09;15.60;99.90
30069;DHT22;16894;49.456;10.644;2023-07-20T03:44:34;15.60;99.90
30069;DHT22;16894;49.456;10.644;2023-07-20T03:47:00;15.50;99.90
30069;DHT22;16894;49.456;10.644;2023-07-20T03:49:26;15.50;99.90
30069;DHT22;16894;49.456;10.644;2023-07-20T03:51:51;15.50;99.90
30069;DHT22;16894;49.456;10.644;2023-07-20T03:54:17;15.50;99.90
30069;DHT22;16894;49.456;10.644;2023-07-20T03:56:44;15.40;99.90
30069;DHT22;16894;49.456;10.644;2023-07-20T03:59:10;15.40;99.90
30069;DHT22;16894;49.456;10.644;2023-07-20T04:01:35;15.40;99.90
30069;DHT22;16894;49.456;10.644;2023-07-20T04:04:05;15.40;99.90
30069;DHT22;16894;49.456;10.644;2023-07-20T04:06:31;15.40;99.90
30069;DHT22;16894;49.456;10.644;2023-07-20T04:08:57;15.40;99.90
30069;DHT22;16894;49.456;10.644;2023-07-20T04:11:23;15.40;99.90
30069;DHT22;16894;49.456;10.644;2023-07-20T04:13:48;15.40;99.90
30069;DHT22;16894;49.456;10.644;2023-07-20T04:16:14;15.50;99.90
30069;DHT22;16894;49.456;10.644;2023-07-20T04:18:40;15.40;99.90
30069;DHT22;16894;49.456;10.644;2023-07-20T04:21:08;15.40;99.90
30069;DHT22;16894;49.456;10.644;2023-07-20T04:23:33;15.30;99.90
30069;DHT22;16894;49.456;10.644;2023-07-20T04:26:01;15.40;99.90
30069;DHT22;16894;49.456;10.644;2023-07-20T04:28:27;15.30;99.90
30069;DHT22;16894;49.456;10.644;2023-07-20T04:30:52;15.30;99.90
30069;DHT22;16894;49.456;10.644;2023-07-20T04:33:18;15.40;99.90
30069;DHT22;16894;49.456;10.644;2023-07-20T04:35:46;15.30;99.90
30069;DHT22;16894;49.456;10.644;2023-07-20T04:38:12;15.30;99.90
30069;DHT22;16894;49.456;10.644;2023-07-20T04:40:38;15.40;99.90
30069;DHT22;16894;49.456;10.644;2023-07-20T04:43:04;15.40;99.90
30069;DHT22;16894;49.456;10.644;2023-07-20T04:45:31;15.50;99.90
30069;DHT22;16894;49.456;10.644;2023-07-20T04:47:56;15.50;99.90
30069;DHT22;16894;49.456;10.644;2023-07-20T04:50:22;15.50;99.90
30069;DHT22;16894;49.456;10.644;2023-07-20T04:52:50;15.50;99.90
30069;DHT22;16894;49.456;10.644;2023-07-20T04:55:16;15.50;99.90
30069;DHT22;16894;49.456;10.644;2023-07-20T04:57:42;15.50;99.90
30069;DHT22;16894;49.456;10.644;2023-07-20T05:00:08;15.50;99.90
30069;DHT22;16894;49.456;10.644;2023-07-20T05:02:36;15.60;99.90
30069;DHT22;16894;49.456;10.644;2023-07-20T05:05:02;15.60;99.90
30069;DHT22;16894;49.456;10.644;2023-07-20T05:07:28;15.70;99.90
30069;DHT22;16894;49.456;10.644;2023-07-20T05:09:53;15.70;99.90
30069;DHT22;16894;49.456;10.644;2023-07-20T05:12:19;15.80;99.90
30069;DHT22;16894;49.456;10.644;2023-07-20T05:14:45;15.90;99.90
30069;DHT22;16894;49.456;10.644;2023-07-20T05:17:10;15.90;99.90
30069;DHT22;16894;49.456;10.644;2023-07-20T05:19:36;15.90;99.90
30069;DHT22;16894;49.456;10.644;2023-07-20T05:22:02;16.00;99.90
30069;DHT22;16894;49.456;10.644;2023-07-20T05:24:28;16.00;99.90
30069;DHT22;16894;49.456;10.644;2023-07-20T05:26:54;16.00;99.90
30069;DHT22;16894;49.456;10.644;2023-07-20T05:29:19;16.00;99.90
30069;DHT22;16894;49.456;10.644;2023-07-20T05:31:45;16.00;99.90
30069;DHT22;16894;49.456;10.644;2023-07-20T05:34:11;16.00;99.90
30069;DHT22;16894;49.456;10.644;2023-07-20T05:36:36;16.00;99.90
30069;DHT22;16894;49.456;10.644;2023-07-20T05:39:02;16.00;99.90
30069;DHT22;16894;49.456;10.644;2023-07-20T05:41:28;16.10;99.90
30069;DHT22;16894;49.456;10.644;2023-07-20T05:43:53;16.10;99.90
30069;DHT22;16894;49.456;10.644;2023-07-20T05:46:19;16.10;99.90
30069;DHT22;16894;49.456;10.644;2023-07-20T05:48:45;16.20;99.90
30069;DHT22;16894;49.456;10.644;2023-07-20T05:51:10;16.20;99.90
30069;DHT22;16894;49.456;10.644;2023-07-20T05:53:36;16.20;99.90
30069;DHT22;16894;49.456;10.644;2023-07-20T05:56:02;16.20;99.90
30069;DHT22;16894;49.456;10.644;2023-07-20T05:58:28;16.30;99.90
30069;DHT22;16894;49.456;10.644;2023-07-20T06:00:53;16.30;99.90
30069;DHT22;16894;49.456;10.644;2023-07-20T06:03:19;16.30;99.90
30069;DHT22;16894;49.456;10.644;2023-07-20T06:05:47;16.30;99.90
30069;DHT22;16894;49.456;10.644;2023-07-20T06:08:12;16.40;99.90
30069;DHT22;16894;49.456;10.644;2023-07-20T06:10:38;16.50;99.90
30069;DHT22;16894;49.456;10.644;2023-07-20T06:13:04;16.50;99.90
30069;DHT22;16894;49.456;10.644;2023-07-20T06:15:33;16.50;99.90
30069;DHT22;16894;49.456;10.644;2023-07-20T06:18:02;16.60;99.90
30069;DHT22;16894;49.456;10.644;2023-07-20T06:20:29;16.60;99.90
30069;DHT22;16894;49.456;10.644;2023-07-20T06:22:55;16.70;99.90
30069;DHT22;16894;49.456;10.644;2023-07-20T06:25:20;16.70;99.90
30069;DHT22;16894;49.456;10.644;2023-07-20T06:27:46;16.80;99.90
30069;DHT22;16894;49.456;10.644;2023-07-20T06:30:12;16.80;99.90
30069;DHT22;16894;49.456;10.644;2023-07-20T06:32:38;16.80;99.90
30069;DHT22;16894;49.456;10.644;2023-07-20T06:35:05;16.90;99.90
30069;DHT22;16894;49.456;10.644;2023-07-20T06:37:30;17.00;99.90
30069;DHT22;16894;49.456;10.644;2023-07-20T06:39:56;17.00;99.90
30069;DHT22;16894;49.456;10.644;2023-07-20T06:42:22;17.10;99.90
30069;DHT22;16894;49.456;10.644;2023-07-20T06:44:47;17.20;99.90
30069;DHT22;16894;49.456;10.644;2023-07-20T06:47:13;17.10;99.90
30069;DHT22;16894;49.456;10.644;2023-07-20T06:49:39;17.20;99.90
30069;DHT22;16894;49.456;10.644;2023-07-20T06:52:05;17.20;99.90
30069;DHT22;16894;49.456;10.644;2023-07-20T06:54:30;17.30;99.90
30069;DHT22;16894;49.456;10.644;2023-07-20T06:56:56;17.40;99.90
30069;DHT22;16894;49.456;10.644;2023-07-20T06:59:22;17.50;99.90
30069;DHT22;16894;49.456;10.644;2023-07-20T07:01:49;17.50;99.90
30069;DHT22;16894;49.456;10.644;2023-07-20T07:04:15;17.50;99.90
30069;DHT22;16894;49.456;10.644;2023-07-20T07:06:41;17.60;99.90
30069;DHT22;16894;49.456;10.644;2023-07-20T07:09:06;17.60;99.90
30069;DHT22;16894;49.456;10.644;2023-07-20T07:11:33;17.70;99.90
30069;DHT22;16894;49.456;10.644;2023-07-20T07:13:59;17.70;99.90
30069;DHT22;16894;49.456;10.644;2023-07-20T07:16:25;17.70;99.90
30069;DHT22;16894;49.456;10.644;2023-07-20T07:18:51;17.80;99.90
30069;DHT22;16894;49.456;10.644;2023-07-20T07:21:16;17.90;99.90
30069;DHT22;16894;49.456;10.644;2023-07-20T07:23:43;18.00;99.90
30069;DHT22;16894;49.456;10.644;2023-07-20T07:26:09;18.00;99.90
30069;DHT22;16894;49.456;10.644;2023-07-20T07:28:35;18.10;99.90
30069;DHT22;16894;49.456;10.644;2023-07-20T07:31:04;18.20;99.90
30069;DHT22;16894;49.456;10.644;2023-07-20T07:33:30;18.20;99.90
30069;DHT22;16894;49.456;10.644;2023-07-20T07:35:55;18.20;99.90
30069;DHT22;16894;49.456;10.644;2023-07-20T07:38:22;18.30;99.90
30069;DHT22;16894;49.456;10.644;2023-07-20T07:40:48;18.40;99.90
30069;DHT22;16894;49.456;10.644;2023-07-20T07:43:14;18.40;99.90
30069;DHT22;16894;49.456;10.644;2023-07-20T07:45:40;18.50;99.90
30069;DHT22;16894;49.456;10.644;2023-07-20T07:48:07;18.60;99.90
30069;DHT22;16894;49.456;10.644;2023-07-20T07:50:33;18.70;99.90
30069;DHT22;16894;49.456;10.644;2023-07-20T07:52:59;18.80;99.90
30069;DHT22;16894;49.456;10.644;2023-07-20T07:55:25;19.00;99.90
30069;DHT22;16894;49.456;10.644;2023-07-20T07:57:53;19.10;99.90
30069;DHT22;16894;49.456;10.644;2023-07-20T08:00:19;19.20;99.90
30069;DHT22;16894;49.456;10.644;2023-07-20T08:02:46;19.30;99.90
30069;DHT22;16894;49.456;10.644;2023-07-20T08:05:13;19.40;99.90
30069;DHT22;16894;49.456;10.644;2023-07-20T08:07:39;19.50;99.90
30069;DHT22;16894;49.456;10.644;2023-07-20T08:10:06;19.60;99.90
30069;DHT22;16894;49.456;10.644;2023-07-20T08:12:31;19.80;99.90
30069;DHT22;16894;49.456;10.644;2023-07-20T08:14:57;19.90;99.90
30069;DHT22;16894;49.456;10.644;2023-07-20T08:17:23;19.90;99.90
30069;DHT22;16894;49.456;10.644;2023-07-20T08:19:49;20.00;99.90
30069;DHT22;16894;49.456;10.644;2023-07-20T08:22:15;20.10;99.90
30069;DHT22;16894;49.456;10.644;2023-07-20T08:24:42;20.30;99.90
30069;DHT22;16894;49.456;10.644;2023-07-20T08:27:08;20.60;99.90
30069;DHT22;16894;49.456;10.644;2023-07-20T08:29:34;20.90;99.90
30069;DHT22;16894;49.456;10.644;2023-07-20T08:32:00;21.00;99.90
30069;DHT22;16894;49.456;10.644;2023-07-20T08:34:26;20.90;98.10
30069;DHT22;16894;49.456;10.644;2023-07-20T08:36:51;21.10;98.50
30069;DHT22;16894;49.456;10.644;2023-07-20T08:39:17;21.20;97.70
30069;DHT22;16894;49.456;10.644;2023-07-20T08:41:43;21.30;98.70
30069;DHT22;16894;49.456;10.644;2023-07-20T08:44:10;21.60;97.50
30069;DHT22;16894;49.456;10.644;2023-07-20T08:46:38;21.90;97.80
30069;DHT22;16894;49.456;10.644;2023-07-20T08:49:05;22.20;96.60
30069;DHT22;16894;49.456;10.644;2023-07-20T08:51:32;22.10;96.50
30069;DHT22;16894;49.456;10.644;2023-07-20T08:53:58;22.60;95.70
30069;DHT22;16894;49.456;10.644;2023-07-20T08:56:24;22.60;95.60
30069;DHT22;16894;49.456;10.644;2023-07-20T08:58:52;22.00;95.20
30069;DHT22;16894;49.456;10.644;2023-07-20T09:01:19;22.40;95.00
30069;DHT22;16894;49.456;10.644;2023-07-20T09:03:46;22.70;95.10
30069;DHT22;16894;49.456;10.644;2023-07-20T09:06:15;22.60;93.90
30069;DHT22;16894;49.456;10.644;2023-07-20T09:08:41;22.60;93.00
30069;DHT22;16894;49.456;10.644;2023-07-20T09:11:07;22.50;92.80
30069;DHT22;16894;49.456;10.644;2023-07-20T09:13:34;22.40;92.30
30069;DHT22;16894;49.456;10.644;2023-07-20T09:16:00;22.20;92.80
30069;DHT22;16894;49.456;10.644;2023-07-20T09:18:31;22.70;92.20
30069;DHT22;16894;49.456;10.644;2023-07-20T09:21:05;23.40;91.70
30069;DHT22;16894;49.456;10.644;2023-07-20T09:23:38;23.00;91.70
30069;DHT22;16894;49.456;10.644;2023-07-20T09:26:14;23.00;91.60
30069;DHT22;16894;49.456;10.644;2023-07-20T09:28:53;23.00;91.80
30069;DHT22;16894;49.456;10.644;2023-07-20T09:31:20;23.10;92.40
30069;DHT22;16894;49.456;10.644;2023-07-20T09:33:47;23.50;91.50
30069;DHT22;16894;49.456;10.644;2023-07-20T09:36:13;23.60;90.90
30069;DHT22;16894;49.456;10.644;2023-07-20T09:38:41;24.10;90.10
30069;DHT22;16894;49.456;10.644;2023-07-20T09:41:18;24.50;89.50
30069;DHT22;16894;49.456;10.644;2023-07-20T09:43:45;24.90;89.40
30069;DHT22;16894;49.456;10.644;2023-07-20T09:46:11;25.10;88.90
30069;DHT22;16894;49.456;10.644;2023-07-20T09:48:37;24.80;88.80
30069;DHT22;16894;49.456;10.644;2023-07-20T09:51:03;24.10;88.20
30069;DHT22;16894;49.456;10.644;2023-07-20T09:53:32;22.70;90.20
30069;DHT22;16894;49.456;10.644;2023-07-20T09:55:59;22.50;90.70
30069;DHT22;16894;49.456;10.644;2023-07-20T09:58:26;22.60;90.70
30069;DHT22;16894;49.456;10.644;2023-07-20T10:00:55;23.10;91.10
30069;DHT22;16894;49.456;10.644;2023-07-20T10:03:27;23.80;87.10
30069;DHT22;16894;49.456;10.644;2023-07-20T10:05:57;24.30;87.90
30069;DHT22;16894;49.456;10.644;2023-07-20T10:08:28;24.20;85.10
30069;DHT22;16894;49.456;10.644;2023-07-20T10:10:55;24.60;83.00
30069;DHT22;16894;49.456;10.644;2023-07-20T10:13:26;24.90;84.20
30069;DHT22;16894;49.456;10.644;2023-07-20T10:16:05;25.40;80.90
30069;DHT22;16894;49.456;10.644;2023-07-20T10:18:50;25.20;80.40
30069;DHT22;16894;49.456;10.644;2023-07-20T10:21:17;25.20;82.10
30069;DHT22;16894;49.456;10.644;2023-07-20T10:23:45;25.80;77.90
30069;DHT22;16894;49.456;10.644;2023-07-20T10:26:12;25.90;80.00
30069;DHT22;16894;49.456;10.644;2023-07-20T10:28:38;26.40;80.10
30069;DHT22;16894;49.456;10.644;2023-07-20T10:31:08;27.00;76.50
30069;DHT22;16894;49.456;10.644;2023-07-20T10:33:34;27.30;74.00
30069;DHT22;16894;49.456;10.644;2023-07-20T10:36:03;26.70;74.50
30069;DHT22;16894;49.456;10.644;2023-07-20T10:38:53;26.70;73.60
30069;DHT22;16894;49.456;10.644;2023-07-20T10:41:29;26.20;73.00
30069;DHT22;16894;49.456;10.644;2023-07-20T10:44:04;25.80;74.40
30069;DHT22;16894;49.456;10.644;2023-07-20T10:46:48;25.70;73.40
30069;DHT22;16894;49.456;10.644;2023-07-20T10:49:39;26.00;72.90
30069;DHT22;16894;49.456;10.644;2023-07-20T10:52:21;26.70;69.00
30069;DHT22;16894;49.456;10.644;2023-07-20T10:54:47;26.50;68.60
30069;DHT22;16894;49.456;10.644;2023-07-20T10:57:30;26.60;69.00
30069;DHT22;16894;49.456;10.644;2023-07-20T11:02:42;27.50;66.30
30069;DHT22;16894;49.456;10.644;2023-07-20T11:05:32;27.50;67.20
30069;DHT22;16894;49.456;10.644;2023-07-20T11:08:07;27.80;66.70
30069;DHT22;16894;49.456;10.644;2023-07-20T11:10:34;27.80;67.40
30069;DHT22;16894;49.456;10.644;2023-07-20T11:13:19;28.00;63.80
30069;DHT22;16894;49.456;10.644;2023-07-20T11:18:27;27.40;62.10
30069;DHT22;16894;49.456;10.644;2023-07-20T11:20:53;27.80;60.90
30069;DHT22;16894;49.456;10.644;2023-07-20T11:23:22;28.10;64.40
30069;DHT22;16894;49.456;10.644;2023-07-20T11:25:49;28.60;62.20
30069;DHT22;16894;49.456;10.644;2023-07-20T11:28:15;28.20;60.90
30069;DHT22;16894;49.456;10.644;2023-07-20T11:30:41;28.70;60.00
30069;DHT22;16894;49.456;10.644;2023-07-20T11:33:10;28.70;58.90
30069;DHT22;16894;49.456;10.644;2023-07-20T11:35:41;29.10;58.20
30069;DHT22;16894;49.456;10.644;2023-07-20T11:38:07;28.90;58.40
30069;DHT22;16894;49.456;10.644;2023-07-20T11:40:33;29.00;59.00
30069;DHT22;16894;49.456;10.644;2023-07-20T11:42:59;29.10;59.50
30069;DHT22;16894;49.456;10.644;2023-07-20T11:45:25;28.90;58.30
30069;DHT22;16894;49.456;10.644;2023-07-20T11:47:53;29.10;58.20
30069;DHT22;16894;49.456;10.644;2023-07-20T11:50:18;29.40;58.50
30069;DHT22;16894;49.456;10.644;2023-07-20T11:52:44;29.40;53.80
30069;DHT22;16894;49.456;10.644;2023-07-20T11:55:11;29.40;56.20
30069;DHT22;16894;49.456;10.644;2023-07-20T11:57:37;29.50;55.80
30069;DHT22;16894;49.456;10.644;2023-07-20T12:00:04;29.20;56.40
30069;DHT22;16894;49.456;10.644;2023-07-20T12:02:38;28.60;56.10
30069;DHT22;16894;49.456;10.644;2023-07-20T12:05:07;28.70;55.00
30069;DHT22;16894;49.456;10.644;2023-07-20T12:07:35;28.90;57.00
30069;DHT22;16894;49.456;10.644;2023-07-20T12:10:12;29.30;57.40
30069;DHT22;16894;49.456;10.644;2023-07-20T12:12:38;29.70;55.70
30069;DHT22;16894;49.456;10.644;2023-07-20T12:15:25;28.80;57.20
30069;DHT22;16894;49.456;10.644;2023-07-20T12:17:56;29.10;57.00
30069;DHT22;16894;49.456;10.644;2023-07-20T12:20:30;29.20;57.20
30069;DHT22;16894;49.456;10.644;2023-07-20T12:22:58;29.80;56.20
30069;DHT22;16894;49.456;10.644;2023-07-20T12:25:41;30.80;56.80
30069;DHT22;16894;49.456;10.644;2023-07-20T12:28:12;30.90;53.90
30069;DHT22;16894;49.456;10.644;2023-07-20T12:30:40;31.60;53.80
30069;DHT22;16894;49.456;10.644;2023-07-20T12:33:06;32.10;52.80
30069;DHT22;16894;49.456;10.644;2023-07-20T12:35:32;32.70;51.80
30069;DHT22;16894;49.456;10.644;2023-07-20T12:37:59;32.50;50.80
30069;DHT22;16894;49.456;10.644;2023-07-20T12:40:25;31.30;50.80
30069;DHT22;16894;49.456;10.644;2023-07-20T12:42:51;30.30;52.80
30069;DHT22;16894;49.456;10.644;2023-07-20T12:45:17;29.90;52.70
30069;DHT22;16894;49.456;10.644;2023-07-20T12:47:42;30.30;54.00
30069;DHT22;16894;49.456;10.644;2023-07-20T12:50:12;31.30;51.40
30069;DHT22;16894;49.456;10.644;2023-07-20T12:52:39;31.70;52.10
30069;DHT22;16894;49.456;10.644;2023-07-20T12:55:07;32.20;50.70
30069;DHT22;16894;49.456;10.644;2023-07-20T12:57:34;32.00;50.10
30069;DHT22;16894;49.456;10.644;2023-07-20T13:00:01;31.60;51.90
30069;DHT22;16894;49.456;10.644;2023-07-20T13:02:30;31.40;50.10
30069;DHT22;16894;49.456;10.644;2023-07-20T13:04:56;31.20;51.70
30069;DHT22;16894;49.456;10.644;2023-07-20T13:07:30;31.70;49.30
30069;DHT22;16894;49.456;10.644;2023-07-20T13:09:56;31.20;50.20
30069;DHT22;16894;49.456;10.644;2023-07-20T13:12:22;31.50;49.80
30069;DHT22;16894;49.456;10.644;2023-07-20T13:14:47;31.90;49.60
30069;DHT22;16894;49.456;10.644;2023-07-20T13:17:13;31.20;49.60
30069;DHT22;16894;49.456;10.644;2023-07-20T13:19:39;31.50;51.20
30069;DHT22;16894;49.456;10.644;2023-07-20T13:22:04;32.10;48.80
30069;DHT22;16894;49.456;10.644;2023-07-20T13:24:30;32.70;50.90
30069;DHT22;16894;49.456;10.644;2023-07-20T13:26:56;32.00;49.00
30069;DHT22;16894;49.456;10.644;2023-07-20T13:29:23;31.00;50.40
30069;DHT22;16894;49.456;10.644;2023-07-20T13:31:49;30.90;53.70
30069;DHT22;16894;49.456;10.644;2023-07-20T13:34:14;31.60;49.80
30069;DHT22;16894;49.456;10.644;2023-07-20T13:36:40;32.40;48.70
30069;DHT22;16894;49.456;10.644;2023-07-20T13:39:06;33.20;47.80
30069;DHT22;16894;49.456;10.644;2023-07-20T13:41:31;33.90;45.60
30069;DHT22;16894;49.456;10.644;2023-07-20T13:43:57;34.40;47.10
30069;DHT22;16894;49.456;10.644;2023-07-20T13:46:23;34.20;46.90
30069;DHT22;16894;49.456;10.644;2023-07-20T13:48:49;34.50;46.90
30069;DHT22;16894;49.456;10.644;2023-07-20T13:51:14;34.80;47.10
30069;DHT22;16894;49.456;10.644;2023-07-20T13:53:41;34.30;46.40
30069;DHT22;16894;49.456;10.644;2023-07-20T13:56:06;34.50;47.60
30069;DHT22;16894;49.456;10.644;2023-07-20T13:58:32;34.70;47.10
30069;DHT22;16894;49.456;10.644;2023-07-20T14:00:58;34.50;47.30
30069;DHT22;16894;49.456;10.644;2023-07-20T14:03:24;34.50;46.80
30069;DHT22;16894;49.456;10.644;2023-07-20T14:05:50;33.90;47.30
30069;DHT22;16894;49.456;10.644;2023-07-20T14:08:16;31.70;47.80
30069;DHT22;16894;49.456;10.644;2023-07-20T14:10:41;31.20;48.70
30069;DHT22;16894;49.456;10.644;2023-07-20T14:13:07;32.00;48.70
30069;DHT22;16894;49.456;10.644;2023-07-20T14:15:35;33.10;47.40
30069;DHT22;16894;49.456;10.644;2023-07-20T14:18:00;31.60;49.70
30069;DHT22;16894;49.456;10.644;2023-07-20T14:20:26;29.70;51.10
30069;DHT22;16894;49.456;10.644;2023-07-20T14:22:52;28.50;51.80
30069;DHT22;16894;49.456;10.644;2023-07-20T14:25:18;28.60;52.00
30069;DHT22;16894;49.456;10.644;2023-07-20T14:27:43;30.30;50.70
30069;DHT22;16894;49.456;10.644;2023-07-20T14:30:09;31.30;50.60
30069;DHT22;16894;49.456;10.644;2023-07-20T14:32:35;32.90;50.30
30069;DHT22;16894;49.456;10.644;2023-07-20T14:35:01;32.20;48.10
30069;DHT22;16894;49.456;10.644;2023-07-20T14:37:27;32.20;47.80
30069;DHT22;16894;49.456;10.644;2023-07-20T14:39:53;32.70;48.80
30069;DHT22;16894;49.456;10.644;2023-07-20T14:42:18;33.20;48.70
30069;DHT22;16894;49.456;10.644;2023-07-20T14:44:44;33.10;48.30
30069;DHT22;16894;49.456;10.644;2023-07-20T14:47:10;33.00;49.50
30069;DHT22;16894;49.456;10.644;2023-07-20T14:49:35;32.80;48.00
30069;DHT22;16894;49.456;10.644;2023-07-20T14:52:02;33.60;47.00
30069;DHT22;16894;49.456;10.644;2023-07-20T14:54:28;33.20;47.60
30069;DHT22;16894;49.456;10.644;2023-07-20T14:56:53;33.60;46.10
30069;DHT22;16894;49.456;10.644;2023-07-20T14:59:19;33.20;48.10
30069;DHT22;16894;49.456;10.644;2023-07-20T15:01:45;33.60;46.70
30069;DHT22;16894;49.456;10.644;2023-07-20T15:04:12;33.40;46.70
30069;DHT22;16894;49.456;10.644;2023-07-20T15:06:37;32.20;47.00
30069;DHT22;16894;49.456;10.644;2023-07-20T15:09:03;32.20;45.10
30069;DHT22;16894;49.456;10.644;2023-07-20T15:11:29;31.70;46.80
30069;DHT22;16894;49.456;10.644;2023-07-20T15:13:55;32.00;46.50
30069;DHT22;16894;49.456;10.644;2023-07-20T15:16:23;31.60;47.80
30069;DHT22;16894;49.456;10.644;2023-07-20T15:18:49;30.60;48.50
30069;DHT22;16894;49.456;10.644;2023-07-20T15:21:15;30.40;49.10
30069;DHT22;16894;49.456;10.644;2023-07-20T15:23:42;30.60;48.80
30069;DHT22;16894;49.456;10.644;2023-07-20T15:26:07;30.00;49.20
30069;DHT22;16894;49.456;10.644;2023-07-20T15:28:33;29.80;48.80
30069;DHT22;16894;49.456;10.644;2023-07-20T15:31:00;29.40;48.40